CheckWX is a tool to help pilots better visualize weather data.  It is not intended as a substitute for an official pre-flight weather briefing.

21:31:24 UTC

LICT METAR
Vincenzo Florio Trapani-Birgi Airport
Trapani, Italy
Current

36 mins ago

LICT 222055Z 13017KT 9999 FEW020 15/11 Q1013
Observed
Nov-22 @ 20:55 UTC
Wind
  • 130° at 17 KTS
Visibility
10,000+ meters
Flight Rules
VFR
Cloud Levels
  • Few at 2,000' AGL
Temperature
15°C / 59°F
Dewpoint
11°C / 52°F
Humidity
77%
Altimeter
29.91" Hg
Pressure
1012.92 hPa
Previous

2 hours ago

LICT 221955Z 14013KT 9999 FEW020 16/12 Q1013
Observed
Nov-22 @ 19:55 UTC
Wind
  • 140° at 13 KTS
Visibility
10,000+ meters
Flight Rules
VFR
Cloud Levels
  • Few at 2,000' AGL
Temperature
16°C / 61°F
Dewpoint
12°C / 54°F
Humidity
77%
Altimeter
29.91" Hg
Pressure
1012.92 hPa
Previous

2 hours ago

LICT 221955Z 14013KT 9999 FEW020 16/12 Q1013 RMK SCT VIS MIN 9999 WIND THR13 12011KT BLU
Observed
Nov-22 @ 19:55 UTC
Wind
  • 140° at 13 KTS
Visibility
10,000+ meters
Flight Rules
VFR
Cloud Levels
  • Few at 2,000' AGL
Temperature
16°C / 61°F
Dewpoint
12°C / 54°F
Humidity
77%
Altimeter
29.91" Hg
Pressure
1012.92 hPa